• Join FlightAware (Why Join?)
  • Login
  • US Flag 
05:01AM EDT


 

Airport Tracker/Info


-or-


 

Live Flight TrackerFlight Track Log ✈ DAL6035 ✈ 17-Apr-2013 ✈ KMHT - KLGA

Flight Track Log - Related Links

Times and Time Zones

All times are in EDT time to prevent confusion due to time zone crossing. See the DAL6035 flight status page for this flight to view local times or setup timezone preferences in your user account.

Time Position Orientation Groundspeed Altitude Reporting Facility
EDT Latitude Longitude Course Direction KTS MPH feet Rate Location/Type
01:36PM 43.0133 -71.4861 329° Northwest 199 229 4,600  Level Boston Center
01:37PM 42.7256 -71.6799 228° Southwest  Level Estimated
01:37PM 43.0492 -71.5394 313° West 206 237 7,100  Level Boston Center
01:38PM 42.6564 -71.7610 236° Southwest  Level Estimated
01:38PM 43.0706 -71.6217 290° West 212 244 9,600  Level Boston Center
01:39PM 42.5872 -71.8418 231° Southwest  Level Estimated
01:39PM 43.0586 -71.6983 258° West 221 254 11,800  Level Boston Center
01:40PM 43.0447 -71.8067 260° West 250 288 13,000 1,020 Climbing Boston Center
01:41PM 43.0161 -71.9006 247° West 285 328 13,900 960 Climbing Boston Center
01:42PM 42.9644 -72.0172 239° Southwest 325 374 15,000 960 Climbing Boston Center
01:43PM 42.9167 -72.1169 237° Southwest 350 403 15,900 420 Climbing Boston Center
01:44PM 42.8525 -72.2333 233° Southwest 357 411 15,900  Level Boston Center
01:45PM 42.7817 -72.3297 225° Southwest 357 411 16,000  Climbing Boston Center
01:46PM 42.7108 -72.4258 225° Southwest 362 417 16,000 -60 Level Boston Center
01:47PM 42.6400 -72.5247 226° Southwest 367 422 15,900  Descending Boston Center
01:48PM 42.5567 -72.6347 224° Southwest 367 422 16,000  Climbing Boston Center
01:49PM 42.4856 -72.7328 225° Southwest 356 410 16,000  Level Boston Center
01:50PM 42.4122 -72.8281 224° Southwest 356 410 16,000 -240 Level Boston Center
01:51PM 42.3411 -72.9261 226° Southwest 356 410 15,600 -720 Descending Boston Center
01:52PM 42.2717 -73.0208 225° Southwest 356 410 14,600 -840 Descending Boston Center
01:53PM 42.2214 -73.0878 225° Southwest 356 410 14,000 -360 Descending Boston Center
01:54PM 42.1372 -73.2044 226° Southwest 356 410 14,000 -60 Level Boston Center
01:55PM 42.0594 -73.3042 224° Southwest 356 410 13,900  Descending Boston Center
01:56PM 41.9900 -73.4008 226° Southwest 361 415 14,100 60 Climbing Boston Center
01:57PM 41.9181 -73.4975 225° Southwest 361 415 14,100  Level Boston Center
01:58PM 41.8444 -73.5911 223° Southwest 361 415 14,100 -480 Level Boston Center
01:59PM 41.7664 -73.6703 217° Southwest 361 415 13,200 -1,500 Descending Boston Center
02:00PM 41.6764 -73.6936 191° South 337 388 11,100 -1,740 Descending Boston Center
02:00PM 41.6167 -73.7167 196° South 299 344 10,200 -1,140 Descending New York TRACON
02:01PM 41.5333 -73.7333 189° South 291 335 9,200 -600 Descending New York TRACON
02:02PM 41.4667 -73.7667 201° Southwest 285 328 9,000 -120 Descending New York TRACON
02:03PM 41.3833 -73.7833 189° South 287 330 9,000 -180 Level New York TRACON
02:04PM 41.3000 -73.7667 171° South 306 352 8,700 -540 Descending New York TRACON
02:05PM 41.2333 -73.7000 143° Southeast 296 341 8,000 -300 Descending New York TRACON
02:06PM 41.1667 -73.6333 143° Southeast 295 339 8,100 -600 Climbing New York TRACON
02:07PM 41.1000 -73.6167 169° South 284 327 6,800 -1,500 Descending New York TRACON
02:08PM 41.0333 -73.6333 191° South 285 328 5,100 -1,320 Descending New York TRACON
02:10PM 40.9500 -73.6333 180° South 259 298 4,100 -480 Descending New York TRACON
02:11PM 40.8833 -73.6333 180° South 254 292 4,100  Level New York TRACON
02:12PM 40.8167 -73.6500 191° South 247 284 4,100  Level New York TRACON
02:13PM 40.8000 -73.7333 255° West 248 285 4,100 -60 Level New York TRACON
02:14PM 40.7833 -73.8167 255° West 247 284 4,000  Descending New York TRACON
02:15PM 40.7667 -73.9167 258° West 236 272 4,100  Climbing New York TRACON
02:15PM 40.7500 -73.9667 246° West 182 209 4,100 -240 Level New York TRACON
02:16PM 40.7167 -74.0167 229° Southwest 190 219 3,700 -720 Descending New York TRACON
02:17PM 40.6833 -73.9833 143° Southeast 205 236 2,700 -1,020 Descending New York TRACON